sensor_id;sensor_type;location;lat;lon;timestamp;temperature;humidity
27619;DHT22;15039;50.830;4.730;2023-12-20T00:01:33;7.00;99.90
27619;DHT22;15039;50.830;4.730;2023-12-20T00:03:59;7.00;99.90
27619;DHT22;15039;50.830;4.730;2023-12-20T00:06:24;7.10;99.90
27619;DHT22;15039;50.830;4.730;2023-12-20T00:08:50;7.10;99.90
27619;DHT22;15039;50.830;4.730;2023-12-20T00:11:16;7.10;99.90
27619;DHT22;15039;50.830;4.730;2023-12-20T00:13:41;7.00;99.90
27619;DHT22;15039;50.830;4.730;2023-12-20T00:16:07;7.00;99.90
27619;DHT22;15039;50.830;4.730;2023-12-20T00:18:33;7.00;99.90
27619;DHT22;15039;50.830;4.730;2023-12-20T00:20:58;7.00;99.90
27619;DHT22;15039;50.830;4.730;2023-12-20T00:23:24;7.00;99.90
27619;DHT22;15039;50.830;4.730;2023-12-20T00:25:50;7.00;99.90
27619;DHT22;15039;50.830;4.730;2023-12-20T00:28:15;6.90;99.90
27619;DHT22;15039;50.830;4.730;2023-12-20T00:30:41;6.90;99.90
27619;DHT22;15039;50.830;4.730;2023-12-20T00:33:07;7.00;99.90
27619;DHT22;15039;50.830;4.730;2023-12-20T00:35:32;7.10;99.90
27619;DHT22;15039;50.830;4.730;2023-12-20T00:37:58;7.10;99.90
27619;DHT22;15039;50.830;4.730;2023-12-20T00:40:24;7.00;99.90
27619;DHT22;15039;50.830;4.730;2023-12-20T00:42:50;7.00;99.90
27619;DHT22;15039;50.830;4.730;2023-12-20T00:45:16;7.00;99.90
27619;DHT22;15039;50.830;4.730;2023-12-20T00:47:41;6.90;99.90
27619;DHT22;15039;50.830;4.730;2023-12-20T00:50:08;6.90;99.90
27619;DHT22;15039;50.830;4.730;2023-12-20T00:52:33;6.90;99.90
27619;DHT22;15039;50.830;4.730;2023-12-20T00:54:59;6.90;99.90
27619;DHT22;15039;50.830;4.730;2023-12-20T00:57:25;6.90;99.90
27619;DHT22;15039;50.830;4.730;2023-12-20T00:59:51;6.90;99.90
27619;DHT22;15039;50.830;4.730;2023-12-20T01:02:16;6.90;99.90
27619;DHT22;15039;50.830;4.730;2023-12-20T01:04:42;6.80;99.90
27619;DHT22;15039;50.830;4.730;2023-12-20T01:07:08;6.80;99.90
27619;DHT22;15039;50.830;4.730;2023-12-20T01:09:34;6.80;99.90
27619;DHT22;15039;50.830;4.730;2023-12-20T01:11:59;6.80;99.90
27619;DHT22;15039;50.830;4.730;2023-12-20T01:14:25;6.70;99.90
27619;DHT22;15039;50.830;4.730;2023-12-20T01:16:51;6.70;99.90
27619;DHT22;15039;50.830;4.730;2023-12-20T01:19:16;6.70;99.90
27619;DHT22;15039;50.830;4.730;2023-12-20T01:21:42;6.70;99.90
27619;DHT22;15039;50.830;4.730;2023-12-20T01:24:08;6.70;99.90
27619;DHT22;15039;50.830;4.730;2023-12-20T01:26:34;6.70;99.90
27619;DHT22;15039;50.830;4.730;2023-12-20T01:28:59;6.70;99.90
27619;DHT22;15039;50.830;4.730;2023-12-20T01:31:26;6.70;99.90
27619;DHT22;15039;50.830;4.730;2023-12-20T01:33:52;6.60;99.90
27619;DHT22;15039;50.830;4.730;2023-12-20T01:36:18;6.60;99.90
27619;DHT22;15039;50.830;4.730;2023-12-20T01:38:45;6.60;99.90
27619;DHT22;15039;50.830;4.730;2023-12-20T01:41:10;6.50;99.90
27619;DHT22;15039;50.830;4.730;2023-12-20T01:43:36;6.50;99.90
27619;DHT22;15039;50.830;4.730;2023-12-20T01:46:02;6.40;99.90
27619;DHT22;15039;50.830;4.730;2023-12-20T01:48:29;6.30;99.90
27619;DHT22;15039;50.830;4.730;2023-12-20T01:50:55;6.30;99.90
27619;DHT22;15039;50.830;4.730;2023-12-20T01:53:22;6.30;99.90
27619;DHT22;15039;50.830;4.730;2023-12-20T01:55:50;6.20;99.90
27619;DHT22;15039;50.830;4.730;2023-12-20T01:58:17;6.20;99.90
27619;DHT22;15039;50.830;4.730;2023-12-20T02:00:44;6.20;99.90
27619;DHT22;15039;50.830;4.730;2023-12-20T02:03:10;6.10;99.90
27619;DHT22;15039;50.830;4.730;2023-12-20T02:05:38;6.00;99.90
27619;DHT22;15039;50.830;4.730;2023-12-20T02:08:18;6.10;99.90
27619;DHT22;15039;50.830;4.730;2023-12-20T02:10:44;6.00;99.90
27619;DHT22;15039;50.830;4.730;2023-12-20T02:13:10;6.00;99.90
27619;DHT22;15039;50.830;4.730;2023-12-20T02:15:36;6.00;99.90
27619;DHT22;15039;50.830;4.730;2023-12-20T02:18:03;6.00;99.90
27619;DHT22;15039;50.830;4.730;2023-12-20T02:20:29;6.00;99.90
27619;DHT22;15039;50.830;4.730;2023-12-20T02:22:54;6.00;99.90
27619;DHT22;15039;50.830;4.730;2023-12-20T02:25:21;6.00;99.90
27619;DHT22;15039;50.830;4.730;2023-12-20T02:27:47;6.00;99.90
27619;DHT22;15039;50.830;4.730;2023-12-20T02:30:14;6.00;99.90
27619;DHT22;15039;50.830;4.730;2023-12-20T02:32:40;5.90;99.90
27619;DHT22;15039;50.830;4.730;2023-12-20T02:35:05;5.80;99.90
27619;DHT22;15039;50.830;4.730;2023-12-20T02:37:32;5.90;99.90
27619;DHT22;15039;50.830;4.730;2023-12-20T02:39:58;5.90;99.90
27619;DHT22;15039;50.830;4.730;2023-12-20T02:42:24;5.90;99.90
27619;DHT22;15039;50.830;4.730;2023-12-20T02:44:49;6.00;99.90
27619;DHT22;15039;50.830;4.730;2023-12-20T02:47:15;6.00;99.90
27619;DHT22;15039;50.830;4.730;2023-12-20T02:49:41;5.90;99.90
27619;DHT22;15039;50.830;4.730;2023-12-20T02:52:06;6.00;99.90
27619;DHT22;15039;50.830;4.730;2023-12-20T02:54:32;6.10;99.90
27619;DHT22;15039;50.830;4.730;2023-12-20T02:56:58;6.10;99.90
27619;DHT22;15039;50.830;4.730;2023-12-20T02:59:23;6.10;99.90
27619;DHT22;15039;50.830;4.730;2023-12-20T03:01:49;6.20;99.90
27619;DHT22;15039;50.830;4.730;2023-12-20T03:04:15;6.20;99.90
27619;DHT22;15039;50.830;4.730;2023-12-20T03:06:41;6.20;99.90
27619;DHT22;15039;50.830;4.730;2023-12-20T03:09:07;6.30;99.90
27619;DHT22;15039;50.830;4.730;2023-12-20T03:11:32;6.30;99.90
27619;DHT22;15039;50.830;4.730;2023-12-20T03:13:58;6.30;99.90
27619;DHT22;15039;50.830;4.730;2023-12-20T03:16:24;6.30;99.90
27619;DHT22;15039;50.830;4.730;2023-12-20T03:18:50;6.30;99.90
27619;DHT22;15039;50.830;4.730;2023-12-20T03:21:15;6.30;99.90
27619;DHT22;15039;50.830;4.730;2023-12-20T03:23:41;6.30;99.90
27619;DHT22;15039;50.830;4.730;2023-12-20T03:26:08;6.30;99.90
27619;DHT22;15039;50.830;4.730;2023-12-20T03:28:34;6.30;99.90
27619;DHT22;15039;50.830;4.730;2023-12-20T03:31:00;6.30;99.90
27619;DHT22;15039;50.830;4.730;2023-12-20T03:33:26;6.30;99.90
27619;DHT22;15039;50.830;4.730;2023-12-20T03:35:51;6.30;99.90
27619;DHT22;15039;50.830;4.730;2023-12-20T03:38:17;6.30;99.90
27619;DHT22;15039;50.830;4.730;2023-12-20T03:40:42;6.30;99.90
27619;DHT22;15039;50.830;4.730;2023-12-20T03:43:08;6.30;99.90
27619;DHT22;15039;50.830;4.730;2023-12-20T03:45:34;6.20;99.90
27619;DHT22;15039;50.830;4.730;2023-12-20T03:47:59;6.20;99.90
27619;DHT22;15039;50.830;4.730;2023-12-20T03:50:26;6.30;99.90
27619;DHT22;15039;50.830;4.730;2023-12-20T03:52:52;6.30;99.90
27619;DHT22;15039;50.830;4.730;2023-12-20T03:55:17;6.30;99.90
27619;DHT22;15039;50.830;4.730;2023-12-20T03:57:43;6.30;99.90
27619;DHT22;15039;50.830;4.730;2023-12-20T04:00:09;6.20;99.90
27619;DHT22;15039;50.830;4.730;2023-12-20T04:02:38;6.10;99.90
27619;DHT22;15039;50.830;4.730;2023-12-20T04:05:05;6.00;99.90
27619;DHT22;15039;50.830;4.730;2023-12-20T04:07:31;6.00;99.90
27619;DHT22;15039;50.830;4.730;2023-12-20T04:09:57;6.00;99.90
27619;DHT22;15039;50.830;4.730;2023-12-20T04:12:23;6.10;99.90
27619;DHT22;15039;50.830;4.730;2023-12-20T04:14:48;6.20;99.90
27619;DHT22;15039;50.830;4.730;2023-12-20T04:17:15;6.20;99.90
27619;DHT22;15039;50.830;4.730;2023-12-20T04:19:44;6.20;99.90
27619;DHT22;15039;50.830;4.730;2023-12-20T04:22:10;6.20;99.90
27619;DHT22;15039;50.830;4.730;2023-12-20T04:24:35;6.30;99.90
27619;DHT22;15039;50.830;4.730;2023-12-20T04:27:01;6.30;99.90
27619;DHT22;15039;50.830;4.730;2023-12-20T04:29:27;6.30;99.90
27619;DHT22;15039;50.830;4.730;2023-12-20T04:31:53;6.40;99.90
27619;DHT22;15039;50.830;4.730;2023-12-20T04:34:19;6.20;99.90
27619;DHT22;15039;50.830;4.730;2023-12-20T04:36:45;6.20;99.90
27619;DHT22;15039;50.830;4.730;2023-12-20T04:39:13;6.20;99.90
27619;DHT22;15039;50.830;4.730;2023-12-20T04:41:40;6.20;99.90
27619;DHT22;15039;50.830;4.730;2023-12-20T04:44:06;6.20;99.90
27619;DHT22;15039;50.830;4.730;2023-12-20T04:46:31;6.10;99.90
27619;DHT22;15039;50.830;4.730;2023-12-20T04:48:57;6.10;99.90
27619;DHT22;15039;50.830;4.730;2023-12-20T04:51:23;6.10;99.90
27619;DHT22;15039;50.830;4.730;2023-12-20T04:53:49;6.00;99.90
27619;DHT22;15039;50.830;4.730;2023-12-20T04:56:14;6.10;99.90
27619;DHT22;15039;50.830;4.730;2023-12-20T04:58:40;6.00;99.90
27619;DHT22;15039;50.830;4.730;2023-12-20T05:01:06;6.10;99.90
27619;DHT22;15039;50.830;4.730;2023-12-20T05:03:32;6.10;99.90
27619;DHT22;15039;50.830;4.730;2023-12-20T05:05:58;6.10;99.90
27619;DHT22;15039;50.830;4.730;2023-12-20T05:08:24;6.10;99.90
27619;DHT22;15039;50.830;4.730;2023-12-20T05:10:51;6.10;99.90
27619;DHT22;15039;50.830;4.730;2023-12-20T05:13:17;6.20;99.90
27619;DHT22;15039;50.830;4.730;2023-12-20T05:15:42;6.20;99.90
27619;DHT22;15039;50.830;4.730;2023-12-20T05:18:08;6.20;99.90
27619;DHT22;15039;50.830;4.730;2023-12-20T05:20:34;6.20;99.90
27619;DHT22;15039;50.830;4.730;2023-12-20T05:22:59;6.10;99.90
27619;DHT22;15039;50.830;4.730;2023-12-20T05:25:25;6.10;99.90
27619;DHT22;15039;50.830;4.730;2023-12-20T05:27:50;6.10;99.90
27619;DHT22;15039;50.830;4.730;2023-12-20T05:30:16;6.10;99.90
27619;DHT22;15039;50.830;4.730;2023-12-20T05:32:42;6.10;99.90
27619;DHT22;15039;50.830;4.730;2023-12-20T05:35:07;6.00;99.90
27619;DHT22;15039;50.830;4.730;2023-12-20T05:37:33;6.00;99.90
27619;DHT22;15039;50.830;4.730;2023-12-20T05:39:59;6.00;99.90
27619;DHT22;15039;50.830;4.730;2023-12-20T05:42:24;5.90;99.90
27619;DHT22;15039;50.830;4.730;2023-12-20T05:44:50;6.00;99.90
27619;DHT22;15039;50.830;4.730;2023-12-20T05:47:16;6.00;99.90
27619;DHT22;15039;50.830;4.730;2023-12-20T05:49:42;5.90;99.90
27619;DHT22;15039;50.830;4.730;2023-12-20T05:52:08;5.90;99.90
27619;DHT22;15039;50.830;4.730;2023-12-20T05:54:33;5.90;99.90
27619;DHT22;15039;50.830;4.730;2023-12-20T05:56:59;5.90;99.90
27619;DHT22;15039;50.830;4.730;2023-12-20T05:59:26;5.90;99.90
27619;DHT22;15039;50.830;4.730;2023-12-20T06:01:51;6.00;99.90
27619;DHT22;15039;50.830;4.730;2023-12-20T06:04:17;5.90;99.90
27619;DHT22;15039;50.830;4.730;2023-12-20T06:06:43;5.90;99.90
27619;DHT22;15039;50.830;4.730;2023-12-20T06:09:09;5.90;99.90
27619;DHT22;15039;50.830;4.730;2023-12-20T06:11:35;6.00;99.90
27619;DHT22;15039;50.830;4.730;2023-12-20T06:14:00;6.00;99.90
27619;DHT22;15039;50.830;4.730;2023-12-20T06:16:26;6.00;99.90
27619;DHT22;15039;50.830;4.730;2023-12-20T06:18:52;6.00;99.90
27619;DHT22;15039;50.830;4.730;2023-12-20T06:21:18;6.00;99.90
27619;DHT22;15039;50.830;4.730;2023-12-20T06:23:44;6.00;99.90
27619;DHT22;15039;50.830;4.730;2023-12-20T06:26:09;6.00;99.90
27619;DHT22;15039;50.830;4.730;2023-12-20T06:28:35;6.00;99.90
27619;DHT22;15039;50.830;4.730;2023-12-20T06:31:01;6.10;99.90
27619;DHT22;15039;50.830;4.730;2023-12-20T06:33:26;6.10;99.90
27619;DHT22;15039;50.830;4.730;2023-12-20T06:35:52;6.20;99.90
27619;DHT22;15039;50.830;4.730;2023-12-20T06:38:18;6.20;99.90
27619;DHT22;15039;50.830;4.730;2023-12-20T06:40:44;6.20;99.90
27619;DHT22;15039;50.830;4.730;2023-12-20T06:43:11;6.20;99.90
27619;DHT22;15039;50.830;4.730;2023-12-20T06:45:37;6.20;99.90
27619;DHT22;15039;50.830;4.730;2023-12-20T06:48:03;6.20;99.90
27619;DHT22;15039;50.830;4.730;2023-12-20T06:50:29;6.20;99.90
27619;DHT22;15039;50.830;4.730;2023-12-20T06:52:54;6.10;99.90
27619;DHT22;15039;50.830;4.730;2023-12-20T06:55:20;6.20;99.90
27619;DHT22;15039;50.830;4.730;2023-12-20T06:57:46;6.20;99.90
27619;DHT22;15039;50.830;4.730;2023-12-20T07:00:12;6.10;99.90
27619;DHT22;15039;50.830;4.730;2023-12-20T07:02:38;6.00;99.90
27619;DHT22;15039;50.830;4.730;2023-12-20T07:05:04;6.00;99.90
27619;DHT22;15039;50.830;4.730;2023-12-20T07:07:30;6.00;99.90
27619;DHT22;15039;50.830;4.730;2023-12-20T07:09:55;6.00;99.90
27619;DHT22;15039;50.830;4.730;2023-12-20T07:12:21;6.00;99.90
27619;DHT22;15039;50.830;4.730;2023-12-20T07:14:47;6.00;99.90
27619;DHT22;15039;50.830;4.730;2023-12-20T07:17:13;6.00;99.90
27619;DHT22;15039;50.830;4.730;2023-12-20T07:19:40;6.00;99.90
27619;DHT22;15039;50.830;4.730;2023-12-20T07:22:06;5.90;99.90
27619;DHT22;15039;50.830;4.730;2023-12-20T07:24:32;5.90;99.90
27619;DHT22;15039;50.830;4.730;2023-12-20T07:27:00;5.80;99.90
27619;DHT22;15039;50.830;4.730;2023-12-20T07:29:25;5.80;99.90
27619;DHT22;15039;50.830;4.730;2023-12-20T07:31:52;5.80;99.90
27619;DHT22;15039;50.830;4.730;2023-12-20T07:34:20;5.90;99.90
27619;DHT22;15039;50.830;4.730;2023-12-20T07:36:45;5.90;99.90
27619;DHT22;15039;50.830;4.730;2023-12-20T07:39:11;5.90;99.90
27619;DHT22;15039;50.830;4.730;2023-12-20T07:41:37;5.90;99.90
27619;DHT22;15039;50.830;4.730;2023-12-20T07:44:04;5.90;99.90
27619;DHT22;15039;50.830;4.730;2023-12-20T07:46:30;5.90;99.90
27619;DHT22;15039;50.830;4.730;2023-12-20T07:48:55;5.90;99.90
27619;DHT22;15039;50.830;4.730;2023-12-20T07:51:21;5.90;99.90
27619;DHT22;15039;50.830;4.730;2023-12-20T07:53:47;5.80;99.90
27619;DHT22;15039;50.830;4.730;2023-12-20T07:56:19;5.80;99.90
27619;DHT22;15039;50.830;4.730;2023-12-20T07:58:45;5.70;99.90
27619;DHT22;15039;50.830;4.730;2023-12-20T08:01:12;5.70;99.90
27619;DHT22;15039;50.830;4.730;2023-12-20T08:03:38;5.70;99.90
27619;DHT22;15039;50.830;4.730;2023-12-20T08:06:04;5.80;99.90
27619;DHT22;15039;50.830;4.730;2023-12-20T08:08:30;5.70;99.90
27619;DHT22;15039;50.830;4.730;2023-12-20T08:10:56;5.70;99.90
27619;DHT22;15039;50.830;4.730;2023-12-20T08:13:24;5.70;99.90
27619;DHT22;15039;50.830;4.730;2023-12-20T08:15:52;5.80;99.90
27619;DHT22;15039;50.830;4.730;2023-12-20T08:18:18;5.80;99.90
27619;DHT22;15039;50.830;4.730;2023-12-20T08:20:44;5.80;99.90
27619;DHT22;15039;50.830;4.730;2023-12-20T08:23:10;5.70;99.90
27619;DHT22;15039;50.830;4.730;2023-12-20T08:25:35;5.70;99.90
27619;DHT22;15039;50.830;4.730;2023-12-20T08:28:02;5.70;99.90
27619;DHT22;15039;50.830;4.730;2023-12-20T08:30:29;5.80;99.90
27619;DHT22;15039;50.830;4.730;2023-12-20T08:32:56;5.80;99.90
27619;DHT22;15039;50.830;4.730;2023-12-20T08:35:22;5.80;99.90
27619;DHT22;15039;50.830;4.730;2023-12-20T08:37:48;5.80;99.90
27619;DHT22;15039;50.830;4.730;2023-12-20T08:40:13;5.80;99.90
27619;DHT22;15039;50.830;4.730;2023-12-20T08:42:39;5.80;99.90
27619;DHT22;15039;50.830;4.730;2023-12-20T08:45:05;5.80;99.90
27619;DHT22;15039;50.830;4.730;2023-12-20T08:47:31;5.90;99.90
27619;DHT22;15039;50.830;4.730;2023-12-20T08:49:57;6.00;99.90
27619;DHT22;15039;50.830;4.730;2023-12-20T08:52:25;6.00;99.90
27619;DHT22;15039;50.830;4.730;2023-12-20T08:54:53;6.10;99.90
27619;DHT22;15039;50.830;4.730;2023-12-20T08:57:22;6.20;99.90
27619;DHT22;15039;50.830;4.730;2023-12-20T08:59:51;6.30;99.90
27619;DHT22;15039;50.830;4.730;2023-12-20T09:02:17;6.40;99.90
27619;DHT22;15039;50.830;4.730;2023-12-20T09:04:43;6.40;99.90
27619;DHT22;15039;50.830;4.730;2023-12-20T09:07:26;6.50;99.90
27619;DHT22;15039;50.830;4.730;2023-12-20T09:09:53;6.50;99.90
27619;DHT22;15039;50.830;4.730;2023-12-20T09:12:19;6.60;99.90
27619;DHT22;15039;50.830;4.730;2023-12-20T09:14:49;6.50;99.90
27619;DHT22;15039;50.830;4.730;2023-12-20T09:17:16;6.50;99.90
27619;DHT22;15039;50.830;4.730;2023-12-20T09:19:42;6.50;99.90
27619;DHT22;15039;50.830;4.730;2023-12-20T09:22:12;6.50;99.90
27619;DHT22;15039;50.830;4.730;2023-12-20T09:24:38;6.50;99.90
27619;DHT22;15039;50.830;4.730;2023-12-20T09:27:07;6.50;99.90
27619;DHT22;15039;50.830;4.730;2023-12-20T09:29:32;6.50;99.90
27619;DHT22;15039;50.830;4.730;2023-12-20T09:31:58;6.50;99.90
27619;DHT22;15039;50.830;4.730;2023-12-20T09:34:24;6.60;99.90
27619;DHT22;15039;50.830;4.730;2023-12-20T09:36:51;6.60;99.90
27619;DHT22;15039;50.830;4.730;2023-12-20T09:39:18;6.60;99.90
27619;DHT22;15039;50.830;4.730;2023-12-20T09:42:06;6.60;99.90
27619;DHT22;15039;50.830;4.730;2023-12-20T09:44:33;6.60;99.90
27619;DHT22;15039;50.830;4.730;2023-12-20T09:47:02;6.60;99.90
27619;DHT22;15039;50.830;4.730;2023-12-20T09:49:30;6.70;99.90
27619;DHT22;15039;50.830;4.730;2023-12-20T09:51:56;6.70;99.90
27619;DHT22;15039;50.830;4.730;2023-12-20T09:54:23;6.70;99.90
27619;DHT22;15039;50.830;4.730;2023-12-20T09:56:49;6.80;99.90
27619;DHT22;15039;50.830;4.730;2023-12-20T09:59:15;6.80;99.90
27619;DHT22;15039;50.830;4.730;2023-12-20T10:01:41;6.80;99.90
27619;DHT22;15039;50.830;4.730;2023-12-20T10:04:09;6.90;99.90
27619;DHT22;15039;50.830;4.730;2023-12-20T10:06:41;6.90;99.90
27619;DHT22;15039;50.830;4.730;2023-12-20T10:09:07;7.00;99.90
27619;DHT22;15039;50.830;4.730;2023-12-20T10:11:35;7.10;99.90
27619;DHT22;15039;50.830;4.730;2023-12-20T10:14:02;7.10;99.90
27619;DHT22;15039;50.830;4.730;2023-12-20T10:16:29;7.20;99.90
27619;DHT22;15039;50.830;4.730;2023-12-20T10:18:55;7.30;99.90
27619;DHT22;15039;50.830;4.730;2023-12-20T10:21:25;7.40;99.90
27619;DHT22;15039;50.830;4.730;2023-12-20T10:23:53;7.50;99.90
27619;DHT22;15039;50.830;4.730;2023-12-20T10:26:20;7.50;99.90
27619;DHT22;15039;50.830;4.730;2023-12-20T10:28:49;7.50;99.90
27619;DHT22;15039;50.830;4.730;2023-12-20T10:31:33;7.60;99.90
27619;DHT22;15039;50.830;4.730;2023-12-20T10:34:00;7.70;99.90
27619;DHT22;15039;50.830;4.730;2023-12-20T10:36:27;7.70;99.90
27619;DHT22;15039;50.830;4.730;2023-12-20T10:38:54;7.70;99.90
27619;DHT22;15039;50.830;4.730;2023-12-20T10:41:28;7.80;99.90
27619;DHT22;15039;50.830;4.730;2023-12-20T10:44:01;7.80;99.90
27619;DHT22;15039;50.830;4.730;2023-12-20T10:46:29;7.80;99.90
27619;DHT22;15039;50.830;4.730;2023-12-20T10:48:56;7.90;99.90
27619;DHT22;15039;50.830;4.730;2023-12-20T10:51:23;7.90;99.90
27619;DHT22;15039;50.830;4.730;2023-12-20T10:53:50;8.00;99.90
27619;DHT22;15039;50.830;4.730;2023-12-20T10:56:19;7.90;99.90
27619;DHT22;15039;50.830;4.730;2023-12-20T10:58:47;8.00;99.90
27619;DHT22;15039;50.830;4.730;2023-12-20T11:01:15;7.90;99.90
27619;DHT22;15039;50.830;4.730;2023-12-20T11:03:54;8.00;99.90
27619;DHT22;15039;50.830;4.730;2023-12-20T11:06:36;8.00;99.90
27619;DHT22;15039;50.830;4.730;2023-12-20T11:09:24;8.10;99.90
27619;DHT22;15039;50.830;4.730;2023-12-20T11:12:16;8.10;99.90
27619;DHT22;15039;50.830;4.730;2023-12-20T11:14:47;8.20;99.90
27619;DHT22;15039;50.830;4.730;2023-12-20T11:17:13;8.20;99.90
27619;DHT22;15039;50.830;4.730;2023-12-20T11:22:29;8.30;99.90
27619;DHT22;15039;50.830;4.730;2023-12-20T11:25:08;8.30;99.90
27619;DHT22;15039;50.830;4.730;2023-12-20T11:27:35;8.30;99.90
27619;DHT22;15039;50.830;4.730;2023-12-20T11:30:03;8.30;99.90
27619;DHT22;15039;50.830;4.730;2023-12-20T11:32:34;8.30;99.90
27619;DHT22;15039;50.830;4.730;2023-12-20T11:35:16;8.30;99.90
27619;DHT22;15039;50.830;4.730;2023-12-20T11:37:41;8.20;99.90
27619;DHT22;15039;50.830;4.730;2023-12-20T11:40:11;8.30;99.90
27619;DHT22;15039;50.830;4.730;2023-12-20T11:42:42;8.30;99.90
27619;DHT22;15039;50.830;4.730;2023-12-20T11:45:14;8.20;99.90
27619;DHT22;15039;50.830;4.730;2023-12-20T11:47:43;8.20;99.90
27619;DHT22;15039;50.830;4.730;2023-12-20T11:50:09;8.20;99.90
27619;DHT22;15039;50.830;4.730;2023-12-20T11:52:35;8.20;99.90
27619;DHT22;15039;50.830;4.730;2023-12-20T11:55:01;8.30;99.90
27619;DHT22;15039;50.830;4.730;2023-12-20T11:57:26;8.20;99.90
27619;DHT22;15039;50.830;4.730;2023-12-20T11:59:52;8.30;99.90
27619;DHT22;15039;50.830;4.730;2023-12-20T12:02:18;8.30;99.90
27619;DHT22;15039;50.830;4.730;2023-12-20T12:04:43;8.30;99.90
27619;DHT22;15039;50.830;4.730;2023-12-20T12:07:09;8.30;99.90
27619;DHT22;15039;50.830;4.730;2023-12-20T12:09:35;8.30;99.90
27619;DHT22;15039;50.830;4.730;2023-12-20T12:12:01;8.30;99.90
27619;DHT22;15039;50.830;4.730;2023-12-20T12:14:27;8.30;99.90
27619;DHT22;15039;50.830;4.730;2023-12-20T12:16:53;8.40;99.90
27619;DHT22;15039;50.830;4.730;2023-12-20T12:19:25;8.50;99.90
27619;DHT22;15039;50.830;4.730;2023-12-20T12:22:07;8.50;99.90
27619;DHT22;15039;50.830;4.730;2023-12-20T12:24:36;8.50;99.90
27619;DHT22;15039;50.830;4.730;2023-12-20T12:27:02;8.60;99.90
27619;DHT22;15039;50.830;4.730;2023-12-20T12:29:28;8.60;99.90
27619;DHT22;15039;50.830;4.730;2023-12-20T12:31:55;8.60;99.90
27619;DHT22;15039;50.830;4.730;2023-12-20T12:34:20;8.50;99.90
27619;DHT22;15039;50.830;4.730;2023-12-20T12:36:46;8.50;99.90
27619;DHT22;15039;50.830;4.730;2023-12-20T12:39:14;8.40;99.90
27619;DHT22;15039;50.830;4.730;2023-12-20T12:41:43;8.40;99.90
27619;DHT22;15039;50.830;4.730;2023-12-20T12:44:08;8.50;99.90
27619;DHT22;15039;50.830;4.730;2023-12-20T12:46:34;8.50;99.90
27619;DHT22;15039;50.830;4.730;2023-12-20T12:49:00;8.60;99.90
27619;DHT22;15039;50.830;4.730;2023-12-20T12:51:26;8.50;99.90
27619;DHT22;15039;50.830;4.730;2023-12-20T12:53:53;8.60;99.90
27619;DHT22;15039;50.830;4.730;2023-12-20T12:56:19;8.60;99.90
27619;DHT22;15039;50.830;4.730;2023-12-20T12:58:45;8.70;99.90
27619;DHT22;15039;50.830;4.730;2023-12-20T13:01:10;8.70;99.90
27619;DHT22;15039;50.830;4.730;2023-12-20T13:03:36;8.70;99.90
27619;DHT22;15039;50.830;4.730;2023-12-20T13:06:02;8.70;99.90
27619;DHT22;15039;50.830;4.730;2023-12-20T13:08:28;8.70;99.90
27619;DHT22;15039;50.830;4.730;2023-12-20T13:10:55;8.60;99.90
27619;DHT22;15039;50.830;4.730;2023-12-20T13:13:22;8.60;99.90
27619;DHT22;15039;50.830;4.730;2023-12-20T13:15:48;8.80;99.90
27619;DHT22;15039;50.830;4.730;2023-12-20T13:18:18;8.70;99.90
27619;DHT22;15039;50.830;4.730;2023-12-20T13:20:44;8.80;99.90
27619;DHT22;15039;50.830;4.730;2023-12-20T13:23:10;8.80;99.90
27619;DHT22;15039;50.830;4.730;2023-12-20T13:25:36;8.80;99.90
27619;DHT22;15039;50.830;4.730;2023-12-20T13:28:02;8.80;99.90
27619;DHT22;15039;50.830;4.730;2023-12-20T13:30:31;8.80;99.90
27619;DHT22;15039;50.830;4.730;2023-12-20T13:32:56;8.80;99.90
27619;DHT22;15039;50.830;4.730;2023-12-20T13:35:22;8.80;99.90
27619;DHT22;15039;50.830;4.730;2023-12-20T13:37:48;8.80;99.90
27619;DHT22;15039;50.830;4.730;2023-12-20T13:40:13;8.90;99.90
27619;DHT22;15039;50.830;4.730;2023-12-20T13:42:40;8.80;99.90
27619;DHT22;15039;50.830;4.730;2023-12-20T13:45:06;8.70;99.90
27619;DHT22;15039;50.830;4.730;2023-12-20T13:47:32;8.80;99.90
27619;DHT22;15039;50.830;4.730;2023-12-20T13:49:58;8.80;99.90
27619;DHT22;15039;50.830;4.730;2023-12-20T13:52:23;8.80;99.90
27619;DHT22;15039;50.830;4.730;2023-12-20T13:54:49;8.80;99.90
27619;DHT22;15039;50.830;4.730;2023-12-20T13:57:15;8.70;99.90
27619;DHT22;15039;50.830;4.730;2023-12-20T13:59:41;8.80;99.90
27619;DHT22;15039;50.830;4.730;2023-12-20T14:02:06;8.70;99.90
27619;DHT22;15039;50.830;4.730;2023-12-20T14:04:32;8.60;99.90
27619;DHT22;15039;50.830;4.730;2023-12-20T14:06:58;8.60;99.90
27619;DHT22;15039;50.830;4.730;2023-12-20T14:09:24;8.60;99.90
27619;DHT22;15039;50.830;4.730;2023-12-20T14:11:50;8.60;99.90
27619;DHT22;15039;50.830;4.730;2023-12-20T14:14:16;8.70;99.90
27619;DHT22;15039;50.830;4.730;2023-12-20T14:16:41;8.60;99.90
27619;DHT22;15039;50.830;4.730;2023-12-20T14:19:10;8.70;99.90
27619;DHT22;15039;50.830;4.730;2023-12-20T14:21:36;8.60;99.90
27619;DHT22;15039;50.830;4.730;2023-12-20T14:24:02;8.70;99.90
27619;DHT22;15039;50.830;4.730;2023-12-20T14:26:29;8.70;99.90
27619;DHT22;15039;50.830;4.730;2023-12-20T14:28:55;8.70;99.90
27619;DHT22;15039;50.830;4.730;2023-12-20T14:31:21;8.70;99.90
27619;DHT22;15039;50.830;4.730;2023-12-20T14:33:49;8.70;99.90
27619;DHT22;15039;50.830;4.730;2023-12-20T14:36:16;8.80;99.90
27619;DHT22;15039;50.830;4.730;2023-12-20T14:38:43;8.80;99.90
27619;DHT22;15039;50.830;4.730;2023-12-20T14:41:09;8.80;99.90
27619;DHT22;15039;50.830;4.730;2023-12-20T14:43:35;8.80;99.90
27619;DHT22;15039;50.830;4.730;2023-12-20T14:46:01;8.90;99.90
27619;DHT22;15039;50.830;4.730;2023-12-20T14:48:27;8.90;99.90
27619;DHT22;15039;50.830;4.730;2023-12-20T14:50:53;9.00;99.90
27619;DHT22;15039;50.830;4.730;2023-12-20T14:53:19;9.00;99.90
27619;DHT22;15039;50.830;4.730;2023-12-20T14:55:45;9.00;99.90
27619;DHT22;15039;50.830;4.730;2023-12-20T15:00:42;9.00;99.90
27619;DHT22;15039;50.830;4.730;2023-12-20T15:03:09;9.00;99.90
27619;DHT22;15039;50.830;4.730;2023-12-20T15:05:35;9.00;99.90
27619;DHT22;15039;50.830;4.730;2023-12-20T15:08:01;9.00;99.90
27619;DHT22;15039;50.830;4.730;2023-12-20T15:10:27;9.00;99.90
27619;DHT22;15039;50.830;4.730;2023-12-20T15:12:52;9.10;99.90
27619;DHT22;15039;50.830;4.730;2023-12-20T15:15:19;9.00;99.90
27619;DHT22;15039;50.830;4.730;2023-12-20T15:17:45;9.10;99.90
27619;DHT22;15039;50.830;4.730;2023-12-20T15:20:11;9.10;99.90
27619;DHT22;15039;50.830;4.730;2023-12-20T15:22:37;9.10;99.90
27619;DHT22;15039;50.830;4.730;2023-12-20T15:25:03;9.10;99.90
27619;DHT22;15039;50.830;4.730;2023-12-20T15:27:31;9.10;99.90
27619;DHT22;15039;50.830;4.730;2023-12-20T15:29:58;9.10;99.90
27619;DHT22;15039;50.830;4.730;2023-12-20T15:32:24;9.20;99.90
27619;DHT22;15039;50.830;4.730;2023-12-20T15:34:50;9.20;99.90
27619;DHT22;15039;50.830;4.730;2023-12-20T15:37:17;9.10;99.90
27619;DHT22;15039;50.830;4.730;2023-12-20T15:39:43;9.20;99.90
27619;DHT22;15039;50.830;4.730;2023-12-20T15:42:09;9.10;99.90
27619;DHT22;15039;50.830;4.730;2023-12-20T15:44:34;9.10;99.90
27619;DHT22;15039;50.830;4.730;2023-12-20T15:47:00;9.00;99.90